createdAt,value
2019-02-11T00:02:16.512Z,0.73
2019-02-11T00:04:59.499Z,0.60
2019-02-11T00:07:41.385Z,0.80
2019-02-11T00:10:23.743Z,0.60
2019-02-11T00:13:10.685Z,0.73
2019-02-11T00:15:49.597Z,1.07
2019-02-11T00:18:32.390Z,1.23
2019-02-11T00:21:14.174Z,0.40
2019-02-11T00:23:56.738Z,0.53
2019-02-11T00:26:38.879Z,0.63
2019-02-11T00:29:21.867Z,0.50
2019-02-11T00:32:04.323Z,0.80
2019-02-11T00:34:46.727Z,1.17
2019-02-11T00:37:28.822Z,0.90
2019-02-11T00:40:11.122Z,0.70
2019-02-11T00:42:53.036Z,1.23
2019-02-11T00:45:35.266Z,1.10
2019-02-11T00:48:17.592Z,0.83
2019-02-11T00:50:59.929Z,0.60
2019-02-11T00:53:43.812Z,0.50
2019-02-11T00:56:25.714Z,0.53
2019-02-11T00:59:07.795Z,0.73
2019-02-11T01:01:50.170Z,1.23
2019-02-11T01:04:32.099Z,1.00
2019-02-11T01:07:14.371Z,0.83
2019-02-11T01:09:56.923Z,1.00
2019-02-11T01:12:39.494Z,0.80
2019-02-11T01:15:22.178Z,1.00
2019-02-11T01:18:04.786Z,0.60
2019-02-11T01:20:47.091Z,0.97
2019-02-11T01:23:28.902Z,1.07
2019-02-11T01:26:11.498Z,0.63
2019-02-11T01:28:53.686Z,0.73
2019-02-11T01:31:36.245Z,1.20
2019-02-11T01:34:18.171Z,2.60
2019-02-11T01:37:00.242Z,1.23
2019-02-11T01:39:42.830Z,0.90
2019-02-11T01:42:25.318Z,0.57
2019-02-11T01:45:07.521Z,0.60
2019-02-11T01:47:49.668Z,0.87
2019-02-11T01:50:32.396Z,0.50
2019-02-11T01:53:14.778Z,0.67
2019-02-11T01:55:57.254Z,0.83
2019-02-11T01:58:39.689Z,0.93
2019-02-11T02:01:22.141Z,0.73
2019-02-11T02:04:04.344Z,1.03
2019-02-11T02:06:46.690Z,0.80
2019-02-11T02:09:29.434Z,1.00
2019-02-11T02:12:11.809Z,1.07
2019-02-11T02:14:53.800Z,0.70
2019-02-11T02:17:37.202Z,1.20
2019-02-11T02:20:19.769Z,0.80
2019-02-11T02:23:02.174Z,0.90
2019-02-11T02:25:43.962Z,1.32
2019-02-11T02:28:26.880Z,1.17
2019-02-11T02:31:09.031Z,0.70
2019-02-11T02:33:51.409Z,2.77
2019-02-11T02:36:33.915Z,1.10
2019-02-11T02:39:16.286Z,0.88
2019-02-11T02:41:58.461Z,1.93
2019-02-11T02:44:40.483Z,1.27
2019-02-11T02:47:23.068Z,1.63
2019-02-11T02:50:05.480Z,0.90
2019-02-11T02:52:48.959Z,1.80
2019-02-11T02:55:31.353Z,0.73
2019-02-11T02:58:13.190Z,1.00
2019-02-11T03:00:55.506Z,3.70
2019-02-11T03:03:37.766Z,1.43
2019-02-11T03:06:20.298Z,1.60
2019-02-11T03:09:02.618Z,0.97
2019-02-11T03:11:45.043Z,0.90
2019-02-11T03:14:27.335Z,1.20
2019-02-11T03:17:09.622Z,0.80
2019-02-11T03:19:51.405Z,1.20
2019-02-11T03:22:33.451Z,0.93
2019-02-11T03:25:15.472Z,1.10
2019-02-11T03:27:57.716Z,1.10
2019-02-11T03:30:39.988Z,1.30
2019-02-11T03:33:21.857Z,1.20
2019-02-11T03:36:04.170Z,1.57
2019-02-11T03:38:46.495Z,1.47
2019-02-11T03:41:28.779Z,0.90
2019-02-11T03:44:15.043Z,1.00
2019-02-11T03:46:54.859Z,1.93
2019-02-11T03:49:37.032Z,0.73
2019-02-11T03:52:19.514Z,1.30
2019-02-11T03:55:02.119Z,1.10
2019-02-11T03:57:43.947Z,1.33
2019-02-11T04:00:26.033Z,1.30
2019-02-11T04:03:08.409Z,1.47
2019-02-11T04:05:51.013Z,1.77
2019-02-11T04:08:33.313Z,1.53
2019-02-11T04:11:15.707Z,1.00
2019-02-11T04:13:57.885Z,0.93
2019-02-11T04:16:39.959Z,1.30
2019-02-11T04:19:22.409Z,2.43
2019-02-11T04:22:04.801Z,0.97
2019-02-11T04:24:46.819Z,1.40
2019-02-11T04:27:29.103Z,3.47
2019-02-11T04:30:10.810Z,1.77
2019-02-11T04:32:52.614Z,2.00
2019-02-11T04:35:34.384Z,1.53
2019-02-11T04:38:16.609Z,1.60
2019-02-11T04:40:58.661Z,1.23
2019-02-11T04:43:41.257Z,2.00
2019-02-11T04:46:23.514Z,0.80
2019-02-11T04:49:05.568Z,1.67
2019-02-11T04:51:48.143Z,1.00
2019-02-11T04:54:30.690Z,0.83
2019-02-11T04:57:13.253Z,0.90
2019-02-11T04:59:55.374Z,1.27
2019-02-11T05:02:37.173Z,0.88
2019-02-11T05:05:19.675Z,1.23
2019-02-11T05:08:01.815Z,1.37
2019-02-11T05:10:44.048Z,1.27
2019-02-11T05:13:25.982Z,0.90
2019-02-11T05:16:08.291Z,1.17
2019-02-11T05:18:52.244Z,0.83
2019-02-11T05:21:34.543Z,1.77
2019-02-11T05:24:17.220Z,1.07
2019-02-11T05:26:59.576Z,1.30
2019-02-11T05:29:42.157Z,1.30
2019-02-11T05:32:24.643Z,1.77
2019-02-11T05:35:06.633Z,2.27
2019-02-11T05:37:48.595Z,2.33
2019-02-11T05:40:30.685Z,1.10
2019-02-11T05:43:12.886Z,2.03
2019-02-11T05:45:55.526Z,1.72
2019-02-11T05:48:37.373Z,1.50
2019-02-11T05:51:19.669Z,1.55
2019-02-11T05:54:01.854Z,1.40
2019-02-11T05:56:43.863Z,1.30
2019-02-11T05:59:26.431Z,1.50
2019-02-11T06:02:08.670Z,1.37
2019-02-11T06:04:50.705Z,1.52
2019-02-11T06:07:33.167Z,1.42
2019-02-11T06:10:15.597Z,1.93
2019-02-11T06:12:57.865Z,2.15
2019-02-11T06:15:40.166Z,2.45
2019-02-11T06:18:22.274Z,1.82
2019-02-11T06:21:04.759Z,1.40
2019-02-11T06:23:46.770Z,2.98
2019-02-11T06:26:29.114Z,2.25
2019-02-11T06:29:11.590Z,2.05
2019-02-11T06:31:54.121Z,1.40
2019-02-11T06:34:36.262Z,1.50
2019-02-11T06:37:18.759Z,1.92
2019-02-11T06:40:00.623Z,2.33
2019-02-11T06:42:42.650Z,1.30
2019-02-11T06:45:24.565Z,1.90
2019-02-11T06:48:06.674Z,2.37
2019-02-11T06:50:48.613Z,2.15
2019-02-11T06:53:31.280Z,2.12
2019-02-11T06:56:13.691Z,2.25
2019-02-11T06:58:56.177Z,1.62
2019-02-11T07:01:38.298Z,3.45
2019-02-11T07:04:20.667Z,2.50
2019-02-11T07:07:02.944Z,2.02
2019-02-11T07:09:44.990Z,1.45
2019-02-11T07:12:26.991Z,1.65
2019-02-11T07:15:09.185Z,1.30
2019-02-11T07:17:51.610Z,1.30
2019-02-11T07:20:34.212Z,2.50
2019-02-11T07:23:16.927Z,2.90
2019-02-11T07:25:59.258Z,1.75
2019-02-11T07:28:41.390Z,2.27
2019-02-11T07:31:23.467Z,1.80
2019-02-11T07:34:05.715Z,1.87
2019-02-11T07:36:47.711Z,1.70
2019-02-11T07:39:29.831Z,1.70
2019-02-11T07:42:33.993Z,2.00
2019-02-11T07:45:29.668Z,3.85
2019-02-11T07:48:25.100Z,2.75
2019-02-11T07:51:07.249Z,3.27
2019-02-11T07:53:49.250Z,1.77
2019-02-11T07:56:32.012Z,3.22
2019-02-11T07:59:14.512Z,2.30
2019-02-11T08:01:56.719Z,2.47
2019-02-11T08:04:40.693Z,2.30
2019-02-11T08:07:23.289Z,1.95
2019-02-11T08:10:05.531Z,1.90
2019-02-11T08:12:47.427Z,2.63
2019-02-11T08:15:38.070Z,1.40
2019-02-11T08:18:14.186Z,2.35
2019-02-11T08:20:55.957Z,1.75
2019-02-11T08:23:38.631Z,1.40
2019-02-11T08:26:20.495Z,1.50
2019-02-11T08:29:02.884Z,2.85
2019-02-11T08:31:44.990Z,2.45
2019-02-11T08:34:27.119Z,1.70
2019-02-11T08:37:09.940Z,2.02
2019-02-11T08:39:52.420Z,2.72
2019-02-11T08:42:35.016Z,2.60
2019-02-11T08:45:17.096Z,1.85
2019-02-11T08:47:59.586Z,2.22
2019-02-11T08:50:42.210Z,1.80
2019-02-11T08:53:24.401Z,2.17
2019-02-11T08:56:06.690Z,2.90
2019-02-11T08:58:48.808Z,4.42
2019-02-11T09:01:30.734Z,2.25
2019-02-11T09:04:18.820Z,3.70
2019-02-11T09:06:57.514Z,3.70
2019-02-11T09:09:39.722Z,2.87
2019-02-11T09:12:21.806Z,2.17
2019-02-11T09:15:04.144Z,2.37
2019-02-11T09:17:46.969Z,3.17
2019-02-11T09:20:29.355Z,3.00
2019-02-11T09:23:11.565Z,1.60
2019-02-11T09:25:53.726Z,2.02
2019-02-11T09:28:35.787Z,1.87
2019-02-11T09:31:18.388Z,2.65
2019-02-11T09:34:00.557Z,6.87
2019-02-11T09:36:42.823Z,5.77
2019-02-11T09:39:24.843Z,5.05
2019-02-11T09:42:06.622Z,3.12
2019-02-11T09:44:48.696Z,2.22
2019-02-11T09:47:30.611Z,2.17
2019-02-11T09:50:12.414Z,6.08
2019-02-11T09:52:54.824Z,3.45
2019-02-11T09:55:37.101Z,2.12
2019-02-11T09:58:19.573Z,3.17
2019-02-11T10:01:00.491Z,2.35
2019-02-11T10:03:50.246Z,3.63
2019-02-11T10:10:00.099Z,4.15
2019-02-11T10:13:10.747Z,6.58
2019-02-11T10:19:14.907Z,4.05
2019-02-11T10:22:04.660Z,3.47
2019-02-11T10:24:46.694Z,4.40
2019-02-11T10:27:29.047Z,2.10
2019-02-11T10:30:11.067Z,2.17
2019-02-11T10:32:52.983Z,1.77
2019-02-11T10:35:42.033Z,3.85
2019-02-11T10:38:18.848Z,2.65
2019-02-11T10:41:01.346Z,3.80
2019-02-11T10:43:43.889Z,6.53
2019-02-11T10:46:25.958Z,2.97
2019-02-11T10:49:08.412Z,3.17
2019-02-11T10:51:50.247Z,4.85
2019-02-11T10:54:32.233Z,26.97
2019-02-11T10:57:14.117Z,10.15
2019-02-11T10:59:56.263Z,4.03
2019-02-11T11:02:38.570Z,3.52
2019-02-11T11:05:21.363Z,2.50
2019-02-11T11:08:03.599Z,2.40
2019-02-11T11:10:46.002Z,3.23
2019-02-11T11:13:28.331Z,1.37
2019-02-11T11:16:10.691Z,1.70
2019-02-11T11:18:52.842Z,1.80
2019-02-11T11:21:35.204Z,4.70
2019-02-11T11:24:17.856Z,2.47
2019-02-11T11:26:59.756Z,2.83
2019-02-11T11:29:42.426Z,4.53
2019-02-11T11:32:24.954Z,2.53
2019-02-11T11:35:07.433Z,2.70
2019-02-11T11:37:49.711Z,5.70
2019-02-11T11:40:31.903Z,2.33
2019-02-11T11:43:13.924Z,2.20
2019-02-11T11:45:56.803Z,3.43
2019-02-11T11:48:39.071Z,4.00
2019-02-11T11:51:22.041Z,3.17
2019-02-11T11:54:04.754Z,3.25
2019-02-11T11:56:47.300Z,1.73
2019-02-11T11:59:29.891Z,2.77
2019-02-11T12:02:15.634Z,2.27
2019-02-11T12:04:55.400Z,1.87
2019-02-11T12:07:37.186Z,2.10
2019-02-11T12:10:19.350Z,3.30
2019-02-11T12:13:20.689Z,3.00
2019-02-11T12:15:46.171Z,1.10
2019-02-11T12:18:28.143Z,4.12
2019-02-11T12:21:10.098Z,2.20
2019-02-11T12:23:52.175Z,4.00
2019-02-11T12:26:34.403Z,4.07
2019-02-11T12:29:17.039Z,2.47
2019-02-11T12:31:59.356Z,3.53
2019-02-11T12:34:41.233Z,3.20
2019-02-11T12:37:23.204Z,3.37
2019-02-11T12:40:05.607Z,1.43
2019-02-11T12:42:48.149Z,4.27
2019-02-11T12:45:30.651Z,3.43
2019-02-11T12:48:13.225Z,3.47
2019-02-11T12:50:55.185Z,3.80
2019-02-11T12:53:37.786Z,1.77
2019-02-11T12:56:20.029Z,2.47
2019-02-11T12:59:02.039Z,1.93
2019-02-11T13:01:44.375Z,1.92
2019-02-11T13:04:26.481Z,3.17
2019-02-11T13:07:08.207Z,2.10
2019-02-11T13:09:50.791Z,2.70
2019-02-11T13:12:33.213Z,2.83
2019-02-11T13:15:41.726Z,1.93
2019-02-11T13:17:59.552Z,2.27
2019-02-11T13:20:41.632Z,3.73
2019-02-11T13:23:23.749Z,5.00
2019-02-11T13:26:06.313Z,2.03
2019-02-11T13:28:48.184Z,2.27
2019-02-11T13:31:30.414Z,4.83
2019-02-11T13:34:13.051Z,3.10
2019-02-11T13:36:55.314Z,4.17
2019-02-11T13:39:37.306Z,4.00
2019-02-11T13:42:19.730Z,3.17
2019-02-11T13:45:02.217Z,3.60
2019-02-11T13:47:54.047Z,7.80
2019-02-11T13:50:28.852Z,4.00
2019-02-11T13:53:11.341Z,3.67
2019-02-11T13:55:53.611Z,2.40
2019-02-11T13:58:36.263Z,4.27
2019-02-11T14:01:18.830Z,2.97
2019-02-11T14:04:00.996Z,4.03
2019-02-11T14:06:43.083Z,3.63
2019-02-11T14:09:25.280Z,3.53
2019-02-11T14:12:07.098Z,4.27
2019-02-11T14:14:49.311Z,6.40
2019-02-11T14:17:31.545Z,4.43
2019-02-11T14:20:13.793Z,2.53
2019-02-11T14:22:56.041Z,3.93
2019-02-11T14:25:44.271Z,2.30
2019-02-11T14:28:23.459Z,3.30
2019-02-11T14:31:05.425Z,2.80
2019-02-11T14:33:47.565Z,2.33
2019-02-11T14:36:29.410Z,5.67
2019-02-11T14:39:11.186Z,7.40
2019-02-11T14:41:53.631Z,2.83
2019-02-11T14:44:35.522Z,2.20
2019-02-11T14:47:17.758Z,2.60
2019-02-11T14:50:00.486Z,6.13
2019-02-11T14:52:42.625Z,4.17
2019-02-11T14:55:24.974Z,3.25
2019-02-11T14:58:07.496Z,2.93
2019-02-11T15:00:49.715Z,2.90
2019-02-11T15:03:32.317Z,3.00
2019-02-11T15:06:14.817Z,2.13
2019-02-11T15:08:56.601Z,1.93
2019-02-11T15:11:39.260Z,2.20
2019-02-11T15:14:21.643Z,2.10
2019-02-11T15:17:03.974Z,2.10
2019-02-11T15:19:46.506Z,1.43
2019-02-11T15:22:28.806Z,4.60
2019-02-11T15:25:10.719Z,4.30
2019-02-11T15:27:52.895Z,2.10
2019-02-11T15:30:35.325Z,1.73
2019-02-11T15:33:17.876Z,3.40
2019-02-11T15:36:00.111Z,3.20
2019-02-11T15:38:42.629Z,4.40
2019-02-11T15:41:24.863Z,2.63
2019-02-11T15:44:07.181Z,3.77
2019-02-11T15:46:49.375Z,4.60
2019-02-11T15:49:31.869Z,4.40
2019-02-11T15:52:14.450Z,2.13
2019-02-11T15:54:56.475Z,3.80
2019-02-11T15:57:39.785Z,3.83
2019-02-11T16:00:22.045Z,3.00
2019-02-11T16:03:04.485Z,5.73
2019-02-11T16:05:49.640Z,2.43
2019-02-11T16:08:30.601Z,3.13
2019-02-11T16:11:12.499Z,3.90
2019-02-11T16:13:54.824Z,3.27
2019-02-11T16:16:37.164Z,3.20
2019-02-11T16:19:19.891Z,7.33
2019-02-11T16:22:02.755Z,3.77
2019-02-11T16:24:45.929Z,7.62
2019-02-11T16:27:28.708Z,4.13
2019-02-11T16:30:11.723Z,5.10
2019-02-11T16:32:53.999Z,4.23
2019-02-11T16:35:36.606Z,3.87
2019-02-11T16:38:19.026Z,2.00
2019-02-11T16:41:02.045Z,3.63
2019-02-11T16:43:44.626Z,3.00
2019-02-11T16:46:27.029Z,2.30
2019-02-11T16:49:09.412Z,2.30
2019-02-11T16:51:51.810Z,3.70
2019-02-11T16:54:34.321Z,5.43
2019-02-11T16:57:16.139Z,2.60
2019-02-11T16:59:58.591Z,6.57
2019-02-11T17:02:41.277Z,5.45
2019-02-11T17:05:24.278Z,4.47
2019-02-11T17:08:06.617Z,3.87
2019-02-11T17:10:49.055Z,4.50
2019-02-11T17:13:31.407Z,4.53
2019-02-11T17:16:14.093Z,4.47
2019-02-11T17:18:56.650Z,3.90
2019-02-11T17:21:40.100Z,3.47
2019-02-11T17:24:22.934Z,4.10
2019-02-11T17:27:06.285Z,3.75
2019-02-11T17:29:48.706Z,4.60
2019-02-11T17:32:31.335Z,4.80
2019-02-11T17:35:13.482Z,3.27
2019-02-11T17:37:55.199Z,3.25
2019-02-11T17:40:37.616Z,4.00
2019-02-11T17:43:20.559Z,3.20
2019-02-11T17:46:02.697Z,3.47
2019-02-11T17:48:44.601Z,3.60
2019-02-11T17:51:26.826Z,4.80
2019-02-11T17:54:09.707Z,5.70
2019-02-11T17:56:52.193Z,4.77
2019-02-11T17:59:34.397Z,5.33
2019-02-11T18:02:16.435Z,5.07
2019-02-11T18:04:58.630Z,3.73
2019-02-11T18:07:41.176Z,3.60
2019-02-11T18:10:24.099Z,4.37
2019-02-11T18:13:06.367Z,2.33
2019-02-11T18:15:48.563Z,4.77
2019-02-11T18:18:31.071Z,3.30
2019-02-11T18:21:13.490Z,4.93
2019-02-11T18:23:55.613Z,5.37
2019-02-11T18:26:37.941Z,3.30
2019-02-11T18:29:20.391Z,3.60
2019-02-11T18:32:02.604Z,3.17
2019-02-11T18:34:45.112Z,3.83
2019-02-11T18:37:27.685Z,3.70
2019-02-11T18:40:11.846Z,3.60
2019-02-11T18:42:54.027Z,5.50
2019-02-11T18:45:36.359Z,4.80
2019-02-11T18:48:18.619Z,4.80
2019-02-11T18:51:00.555Z,5.47
2019-02-11T18:53:42.963Z,4.57
2019-02-11T18:56:25.919Z,5.73
2019-02-11T18:59:07.675Z,5.60
2019-02-11T19:01:50.190Z,6.20
2019-02-11T19:04:32.898Z,4.50
2019-02-11T19:07:14.715Z,6.17
2019-02-11T19:09:56.669Z,5.77
2019-02-11T19:12:38.978Z,4.00
2019-02-11T19:15:20.833Z,3.70
2019-02-11T19:18:03.471Z,3.83
2019-02-11T19:20:46.066Z,6.20
2019-02-11T19:23:28.215Z,5.50
2019-02-11T19:26:10.805Z,5.33
2019-02-11T19:28:53.542Z,7.70
2019-02-11T19:31:35.864Z,4.77
2019-02-11T19:34:18.397Z,3.27
2019-02-11T19:37:00.841Z,3.50
2019-02-11T19:39:43.073Z,5.87
2019-02-11T19:42:25.791Z,3.03
2019-02-11T19:45:08.034Z,3.53
2019-02-11T19:47:50.082Z,3.27
2019-02-11T19:50:32.370Z,4.60
2019-02-11T19:53:14.487Z,3.37
2019-02-11T19:55:56.823Z,3.37
2019-02-11T19:58:38.844Z,3.10
2019-02-11T20:01:21.230Z,4.63
2019-02-11T20:04:07.475Z,4.67
2019-02-11T20:06:47.510Z,4.60
2019-02-11T20:09:32.909Z,5.17
2019-02-11T20:12:13.886Z,3.70
2019-02-11T20:14:55.646Z,3.80
2019-02-11T20:17:38.029Z,3.70
2019-02-11T20:20:20.673Z,4.43
2019-02-11T20:23:02.913Z,3.63
2019-02-11T20:25:44.886Z,3.73
2019-02-11T20:28:26.897Z,4.07
2019-02-11T20:31:08.908Z,6.20
2019-02-11T20:33:51.047Z,5.33
2019-02-11T20:36:33.627Z,3.53
2019-02-11T20:39:16.103Z,3.80
2019-02-11T20:41:58.762Z,3.73
2019-02-11T20:44:40.770Z,4.50
2019-02-11T20:47:23.441Z,5.30
2019-02-11T20:50:09.387Z,5.50
2019-02-11T20:52:49.557Z,4.30
2019-02-11T20:55:31.449Z,4.17
2019-02-11T20:58:13.669Z,4.83
2019-02-11T21:00:55.704Z,3.73
2019-02-11T21:03:37.468Z,4.33
2019-02-11T21:06:19.660Z,3.80
2019-02-11T21:09:01.758Z,5.13
2019-02-11T21:11:43.663Z,3.80
2019-02-11T21:14:26.071Z,3.77
2019-02-11T21:17:08.353Z,5.97
2019-02-11T21:19:50.670Z,7.37
2019-02-11T21:22:32.745Z,5.97
2019-02-11T21:25:14.671Z,6.60
2019-02-11T21:27:56.829Z,5.23
2019-02-11T21:30:38.807Z,6.63
2019-02-11T21:33:20.999Z,5.67
2019-02-11T21:36:03.393Z,4.70
2019-02-11T21:38:45.438Z,3.80
2019-02-11T21:41:27.725Z,5.40
2019-02-11T21:44:10.061Z,5.33
2019-02-11T21:46:52.283Z,5.60
2019-02-11T21:49:35.098Z,7.37
2019-02-11T21:52:17.698Z,7.10
2019-02-11T21:54:59.621Z,6.07
2019-02-11T21:57:41.471Z,5.77
2019-02-11T22:00:23.563Z,5.30
2019-02-11T22:03:05.987Z,5.73
2019-02-11T22:05:48.410Z,4.80
2019-02-11T22:08:30.717Z,4.62
2019-02-11T22:11:12.603Z,4.77
2019-02-11T22:13:54.554Z,6.43
2019-02-11T22:16:36.713Z,6.23
2019-02-11T22:19:18.825Z,4.33
2019-02-11T22:22:00.820Z,6.80
2019-02-11T22:24:43.082Z,6.10
2019-02-11T22:27:25.232Z,4.77
2019-02-11T22:30:07.198Z,6.20
2019-02-11T22:32:49.394Z,7.37
2019-02-11T22:35:31.546Z,4.87
2019-02-11T22:38:13.643Z,4.87
2019-02-11T22:40:56.083Z,6.73
2019-02-11T22:43:38.294Z,5.30
2019-02-11T22:46:20.543Z,5.10
2019-02-11T22:49:02.916Z,6.03
2019-02-11T22:51:45.106Z,5.40
2019-02-11T22:54:27.213Z,6.00
2019-02-11T22:57:08.967Z,5.63
2019-02-11T22:59:51.250Z,7.83
2019-02-11T23:02:34.038Z,6.47
2019-02-11T23:05:16.276Z,6.30
2019-02-11T23:07:58.678Z,8.10
2019-02-11T23:10:40.686Z,5.50
2019-02-11T23:13:23.273Z,5.10
2019-02-11T23:16:05.792Z,7.80
2019-02-11T23:18:48.083Z,6.00
2019-02-11T23:21:30.483Z,5.77
2019-02-11T23:24:12.963Z,5.83
2019-02-11T23:26:54.859Z,6.80
2019-02-11T23:29:37.503Z,9.23
2019-02-11T23:32:19.575Z,6.67
2019-02-11T23:35:02.278Z,6.13
2019-02-11T23:37:44.245Z,6.60
2019-02-11T23:40:26.189Z,8.03
2019-02-11T23:43:08.677Z,6.73
2019-02-11T23:45:51.089Z,7.37
2019-02-11T23:48:33.308Z,5.50
2019-02-11T23:51:15.272Z,4.10
2019-02-11T23:53:57.503Z,4.70
2019-02-11T23:56:39.630Z,6.13
2019-02-11T23:59:21.725Z,4.60
